createdAt,value
2017-08-08T00:00:40.412Z,88.10
2017-08-08T00:03:07.964Z,88.00
2017-08-08T00:05:35.500Z,87.20
2017-08-08T00:08:03.050Z,87.70
2017-08-08T00:10:30.683Z,88.20
2017-08-08T00:12:58.224Z,89.00
2017-08-08T00:15:25.752Z,88.80
2017-08-08T00:17:54.080Z,88.90
2017-08-08T00:20:21.610Z,88.80
2017-08-08T00:22:49.177Z,88.80
2017-08-08T00:25:16.718Z,89.50
2017-08-08T00:27:44.326Z,89.50
2017-08-08T00:30:11.888Z,89.40
2017-08-08T00:32:39.428Z,90.00
2017-08-08T00:35:06.991Z,90.00
2017-08-08T00:37:34.515Z,90.00
2017-08-08T00:40:02.094Z,90.40
2017-08-08T00:42:29.641Z,90.40
2017-08-08T00:44:57.170Z,90.60
2017-08-08T00:47:24.738Z,90.30
2017-08-08T00:49:52.266Z,89.10
2017-08-08T00:52:20.644Z,89.10
2017-08-08T00:54:48.990Z,90.10
2017-08-08T00:57:16.519Z,89.40
2017-08-08T00:59:44.037Z,90.10
2017-08-08T01:02:12.365Z,90.60
2017-08-08T01:04:39.947Z,90.60
2017-08-08T01:07:07.479Z,90.90
2017-08-08T01:09:35.002Z,91.00
2017-08-08T01:12:02.568Z,91.00
2017-08-08T01:14:30.136Z,91.10
2017-08-08T01:16:57.801Z,90.90
2017-08-08T01:19:25.334Z,90.60
2017-08-08T01:21:52.879Z,90.10
2017-08-08T01:24:21.201Z,90.90
2017-08-08T01:26:48.722Z,90.90
2017-08-08T01:29:17.058Z,91.40
2017-08-08T01:31:44.602Z,91.40
2017-08-08T01:34:12.125Z,90.70
2017-08-08T01:36:39.700Z,90.40
2017-08-08T01:39:07.244Z,89.60
2017-08-08T01:41:35.573Z,90.70
2017-08-08T01:44:03.107Z,90.70
2017-08-08T01:46:30.710Z,91.10
2017-08-08T01:48:59.026Z,91.50
2017-08-08T01:51:26.579Z,91.40
2017-08-08T01:53:54.263Z,92.20
2017-08-08T01:56:21.803Z,91.70
2017-08-08T01:58:49.530Z,91.70
2017-08-08T02:01:17.827Z,92.30
2017-08-08T02:03:45.475Z,92.30
2017-08-08T02:06:13.030Z,92.30
2017-08-08T02:08:41.326Z,91.30
2017-08-08T02:11:08.905Z,91.30
2017-08-08T02:13:36.439Z,91.30
2017-08-08T02:16:03.988Z,91.50
2017-08-08T02:18:31.564Z,91.90
2017-08-08T02:20:59.091Z,92.30
2017-08-08T02:23:27.395Z,92.40
2017-08-08T02:25:54.942Z,92.40
2017-08-08T02:28:22.499Z,91.80
2017-08-08T02:30:50.087Z,91.10
2017-08-08T02:33:17.610Z,91.10
2017-08-08T02:35:45.174Z,91.20
2017-08-08T02:38:12.921Z,91.70
2017-08-08T02:40:41.228Z,92.10
2017-08-08T02:43:08.955Z,92.10
2017-08-08T02:45:37.248Z,92.20
2017-08-08T02:48:04.815Z,92.20
2017-08-08T02:50:32.371Z,92.20
2017-08-08T02:52:59.900Z,92.80
2017-08-08T02:55:28.223Z,93.00
2017-08-08T02:57:55.764Z,93.00
2017-08-08T03:00:23.295Z,92.70
2017-08-08T03:02:51.635Z,92.60
2017-08-08T03:05:19.236Z,92.60
2017-08-08T03:07:47.535Z,92.40
2017-08-08T03:10:15.110Z,92.30
2017-08-08T03:12:42.831Z,92.50
2017-08-08T03:15:10.395Z,92.20
2017-08-08T03:17:37.922Z,92.30
2017-08-08T03:20:05.570Z,92.80
2017-08-08T03:22:33.095Z,92.30
2017-08-08T03:25:00.746Z,92.20
2017-08-08T03:27:28.314Z,91.90
2017-08-08T03:29:55.855Z,92.30
2017-08-08T03:32:23.433Z,92.70
2017-08-08T03:34:50.987Z,92.20
2017-08-08T03:37:18.534Z,92.90
2017-08-08T03:39:46.210Z,92.50
2017-08-08T03:42:13.749Z,92.70
2017-08-08T03:44:41.277Z,92.70
2017-08-08T03:47:09.674Z,92.70
2017-08-08T03:49:37.232Z,92.70
2017-08-08T03:52:04.809Z,93.00
2017-08-08T03:54:32.330Z,93.20
2017-08-08T03:57:00.676Z,93.00
2017-08-08T03:59:28.205Z,93.00
2017-08-08T04:01:55.755Z,92.50
2017-08-08T04:04:23.331Z,92.00
2017-08-08T04:06:50.864Z,91.80
2017-08-08T04:09:18.435Z,92.10
2017-08-08T04:11:45.968Z,91.60
2017-08-08T04:14:13.597Z,91.90
2017-08-08T04:16:41.154Z,91.80
2017-08-08T04:19:08.687Z,92.20
2017-08-08T04:21:36.251Z,92.20
2017-08-08T04:24:03.790Z,92.00
2017-08-08T04:26:31.322Z,91.60
2017-08-08T04:28:58.883Z,91.40
2017-08-08T04:31:26.402Z,91.20
2017-08-08T04:33:53.966Z,91.00
2017-08-08T04:36:22.299Z,91.20
2017-08-08T04:38:49.835Z,91.20
2017-08-08T04:41:17.583Z,91.60
2017-08-08T04:43:45.894Z,92.40
2017-08-08T04:46:13.471Z,92.30
2017-08-08T04:48:41.004Z,92.00
2017-08-08T04:51:08.543Z,91.50
2017-08-08T04:53:36.106Z,91.90
2017-08-08T04:56:03.680Z,91.10
2017-08-08T04:58:31.215Z,91.00
2017-08-08T05:00:58.827Z,90.90
2017-08-08T05:03:26.379Z,91.40
2017-08-08T05:05:53.931Z,90.90
2017-08-08T05:08:21.483Z,91.10
2017-08-08T05:10:49.096Z,91.00
2017-08-08T05:13:17.404Z,90.70
2017-08-08T05:15:44.932Z,90.70
2017-08-08T05:18:13.271Z,90.40
2017-08-08T05:20:40.871Z,90.40
2017-08-08T05:23:08.463Z,90.10
2017-08-08T05:25:36.174Z,90.30
2017-08-08T05:28:04.471Z,90.70
2017-08-08T05:30:31.998Z,90.60
2017-08-08T05:33:00.343Z,91.10
2017-08-08T05:35:27.949Z,91.10
2017-08-08T05:37:56.258Z,91.30
2017-08-08T05:40:23.875Z,91.30
2017-08-08T05:42:52.324Z,92.20
2017-08-08T05:45:19.858Z,92.20
2017-08-08T05:47:47.411Z,93.00
2017-08-08T05:50:14.975Z,92.90
2017-08-08T05:52:42.656Z,92.30
2017-08-08T05:55:10.216Z,91.60
2017-08-08T05:57:37.771Z,91.40
2017-08-08T06:00:05.298Z,90.30
2017-08-08T06:02:32.860Z,90.00
2017-08-08T06:05:00.471Z,90.60
2017-08-08T06:07:28.031Z,91.20
2017-08-08T06:09:56.327Z,89.90
2017-08-08T06:12:24.616Z,88.40
2017-08-08T06:14:52.174Z,88.30
2017-08-08T06:17:19.708Z,88.30
2017-08-08T06:19:48.056Z,90.50
2017-08-08T06:22:15.579Z,90.50
2017-08-08T06:24:43.135Z,91.10
2017-08-08T06:27:10.744Z,90.30
2017-08-08T06:29:38.292Z,91.60
2017-08-08T06:32:05.893Z,89.70
2017-08-08T06:34:33.594Z,88.70
2017-08-08T06:37:01.311Z,88.50
2017-08-08T06:39:28.843Z,89.70
2017-08-08T06:41:56.375Z,89.30
2017-08-08T06:44:23.980Z,88.30
2017-08-08T06:46:52.374Z,86.70
2017-08-08T06:49:19.982Z,86.60
2017-08-08T06:51:47.570Z,87.70
2017-08-08T06:54:15.907Z,89.00
2017-08-08T06:56:43.428Z,89.60
2017-08-08T06:59:10.982Z,88.00
2017-08-08T07:01:38.592Z,88.00
2017-08-08T07:04:06.251Z,87.80
2017-08-08T07:06:33.787Z,87.90
2017-08-08T07:09:01.347Z,87.70
2017-08-08T07:11:28.880Z,88.20
2017-08-08T07:13:56.474Z,87.10
2017-08-08T07:16:24.007Z,86.10
2017-08-08T07:18:51.566Z,86.10
2017-08-08T07:21:19.115Z,85.20
2017-08-08T07:23:46.651Z,85.30
2017-08-08T07:26:14.226Z,84.80
2017-08-08T07:28:41.754Z,83.80
2017-08-08T07:31:10.084Z,81.00
2017-08-08T07:33:37.660Z,80.70
2017-08-08T07:36:05.206Z,78.50
2017-08-08T07:38:32.792Z,76.80
2017-08-08T07:41:00.335Z,71.60
2017-08-08T07:43:27.933Z,73.90
2017-08-08T07:45:56.265Z,77.80
2017-08-08T07:48:23.819Z,77.60
2017-08-08T07:50:51.347Z,78.10
2017-08-08T07:53:18.893Z,81.10
2017-08-08T07:55:46.450Z,80.70
2017-08-08T07:58:14.071Z,81.40
2017-08-08T08:00:41.724Z,81.90
2017-08-08T08:03:09.290Z,82.20
2017-08-08T08:05:36.865Z,84.30
2017-08-08T08:08:05.168Z,84.10
2017-08-08T08:10:32.716Z,84.00
2017-08-08T08:13:00.271Z,81.50
2017-08-08T08:15:27.823Z,81.30
2017-08-08T08:17:56.143Z,77.90
2017-08-08T08:20:23.845Z,77.80
2017-08-08T08:22:51.414Z,75.70
2017-08-08T08:25:19.713Z,78.10
2017-08-08T08:27:47.284Z,77.90
2017-08-08T08:30:14.822Z,79.10
2017-08-08T08:32:42.356Z,77.20
2017-08-08T08:35:10.688Z,78.00
2017-08-08T08:37:38.210Z,77.90
2017-08-08T08:40:05.784Z,76.10
2017-08-08T08:42:33.318Z,74.70
2017-08-08T08:45:01.754Z,76.00
2017-08-08T08:47:29.329Z,75.90
2017-08-08T08:49:56.948Z,75.80
2017-08-08T08:52:24.581Z,77.50
2017-08-08T08:54:52.122Z,79.40
2017-08-08T08:57:20.424Z,79.70
2017-08-08T08:59:47.993Z,79.70
2017-08-08T09:02:15.547Z,78.60
2017-08-08T09:04:43.134Z,78.70
2017-08-08T09:07:10.682Z,79.10
2017-08-08T09:09:38.235Z,79.30
2017-08-08T09:12:05.799Z,79.20
2017-08-08T09:14:33.343Z,80.00
2017-08-08T09:17:00.885Z,77.70
2017-08-08T09:19:28.500Z,77.30
2017-08-08T09:21:56.070Z,78.50
2017-08-08T09:24:23.612Z,78.00
2017-08-08T09:26:51.163Z,77.10
2017-08-08T09:29:18.744Z,76.80
2017-08-08T09:31:46.279Z,78.70
2017-08-08T09:34:13.795Z,80.30
2017-08-08T09:36:41.378Z,80.70
2017-08-08T09:39:08.913Z,80.00
2017-08-08T09:41:36.510Z,80.80
2017-08-08T09:44:04.082Z,81.00
2017-08-08T09:46:31.660Z,82.50
2017-08-08T09:48:59.983Z,82.20
2017-08-08T09:51:27.623Z,82.20
2017-08-08T09:53:55.183Z,85.10
2017-08-08T09:56:22.747Z,83.40
2017-08-08T09:58:50.307Z,84.70
2017-08-08T10:01:17.862Z,83.90
2017-08-08T10:03:45.603Z,84.20
2017-08-08T10:06:13.168Z,82.60
2017-08-08T10:08:40.714Z,83.60
2017-08-08T10:11:09.219Z,86.10
2017-08-08T10:13:36.775Z,86.20
2017-08-08T10:16:04.381Z,90.00
2017-08-08T10:18:32.045Z,87.90
2017-08-08T10:20:59.590Z,85.60
2017-08-08T10:23:27.135Z,83.70
2017-08-08T10:25:54.703Z,80.10
2017-08-08T10:28:22.235Z,79.20
2017-08-08T10:30:49.854Z,77.10
2017-08-08T10:33:18.151Z,73.30
2017-08-08T10:35:45.692Z,73.30
2017-08-08T10:38:14.038Z,74.50
2017-08-08T10:40:41.579Z,74.50
2017-08-08T10:43:09.153Z,77.10
2017-08-08T10:45:36.694Z,77.90
2017-08-08T10:48:04.282Z,79.20
2017-08-08T10:50:31.830Z,77.50
2017-08-08T10:52:59.355Z,78.20
2017-08-08T10:55:27.090Z,78.50
2017-08-08T10:57:54.630Z,75.50
2017-08-08T11:00:22.956Z,69.60
2017-08-08T11:02:50.552Z,69.50
2017-08-08T11:05:18.091Z,68.90
2017-08-08T11:07:45.677Z,65.30
2017-08-08T11:10:13.978Z,72.80
2017-08-08T11:12:41.513Z,72.70
2017-08-08T11:15:09.849Z,74.70
2017-08-08T11:17:37.432Z,74.70
2017-08-08T11:20:04.978Z,75.70
2017-08-08T11:22:32.504Z,76.40
2017-08-08T11:25:00.060Z,81.60
2017-08-08T11:27:27.696Z,79.60
2017-08-08T11:29:55.272Z,81.50
2017-08-08T11:32:22.827Z,76.40
2017-08-08T11:34:50.359Z,74.40
2017-08-08T11:37:18.687Z,75.80
2017-08-08T11:39:46.323Z,76.00
2017-08-08T11:42:13.932Z,75.10
2017-08-08T11:44:41.581Z,68.80
2017-08-08T11:47:09.129Z,69.50
2017-08-08T11:49:36.679Z,69.60
2017-08-08T11:52:04.360Z,71.00
2017-08-08T11:54:31.943Z,69.00
2017-08-08T11:57:00.283Z,69.90
2017-08-08T11:59:27.821Z,69.40
2017-08-08T12:01:55.418Z,71.50
2017-08-08T12:04:23.039Z,70.50
2017-08-08T12:06:50.583Z,71.20
2017-08-08T12:09:18.141Z,71.10
2017-08-08T12:11:45.661Z,72.00
2017-08-08T12:14:13.228Z,73.40
2017-08-08T12:16:40.747Z,75.20
2017-08-08T12:19:08.371Z,75.70
2017-08-08T12:21:35.931Z,75.70
2017-08-08T12:24:03.450Z,75.30
2017-08-08T12:26:31.786Z,75.60
2017-08-08T12:28:59.317Z,75.60
2017-08-08T12:31:26.855Z,74.30
2017-08-08T12:33:55.253Z,74.00
2017-08-08T12:36:22.783Z,73.20
2017-08-08T12:38:51.111Z,73.20
2017-08-08T12:41:18.630Z,73.20
2017-08-08T12:43:48.922Z,72.50
2017-08-08T12:46:16.466Z,72.50
2017-08-08T12:48:44.004Z,72.10
2017-08-08T12:51:11.570Z,73.00
2017-08-08T12:53:39.104Z,74.00
2017-08-08T12:56:06.636Z,74.00
2017-08-08T12:58:35.087Z,75.70
2017-08-08T13:01:02.639Z,75.50
2017-08-08T13:03:30.307Z,74.70
2017-08-08T13:05:57.845Z,75.00
2017-08-08T13:08:25.560Z,75.10
2017-08-08T13:10:53.094Z,75.80
2017-08-08T13:13:20.636Z,75.90
2017-08-08T13:15:48.203Z,76.20
2017-08-08T13:18:15.732Z,76.10
2017-08-08T13:20:43.304Z,77.00
2017-08-08T13:23:10.847Z,76.80
2017-08-08T13:25:38.564Z,78.10
2017-08-08T13:28:06.881Z,79.00
2017-08-08T13:30:34.419Z,78.90
2017-08-08T13:33:01.987Z,79.50
2017-08-08T13:35:29.512Z,79.90
2017-08-08T13:37:57.908Z,82.10
2017-08-08T13:40:25.476Z,82.00
2017-08-08T13:42:53.011Z,82.80
2017-08-08T13:45:20.599Z,84.60
2017-08-08T13:47:48.133Z,85.40
2017-08-08T13:50:15.699Z,85.60
2017-08-08T13:52:43.223Z,86.50
2017-08-08T13:55:11.540Z,87.90
2017-08-08T13:57:39.106Z,87.80
2017-08-08T14:00:06.680Z,87.10
2017-08-08T14:02:34.202Z,88.00
2017-08-08T14:05:01.948Z,87.40
2017-08-08T14:07:30.260Z,88.00
2017-08-08T14:09:57.787Z,88.00
2017-08-08T14:12:25.353Z,88.10
2017-08-08T14:14:52.886Z,87.60
2017-08-08T14:17:21.218Z,87.70
2017-08-08T14:19:48.742Z,86.90
2017-08-08T14:22:16.297Z,85.80
2017-08-08T14:24:44.769Z,86.90
2017-08-08T14:27:13.086Z,87.40
2017-08-08T14:29:40.711Z,87.30
2017-08-08T14:32:08.319Z,87.30
2017-08-08T14:34:35.993Z,87.90
2017-08-08T14:37:03.523Z,87.80
2017-08-08T14:39:31.094Z,88.50
2017-08-08T14:41:58.694Z,88.30
2017-08-08T14:44:26.985Z,88.00
2017-08-08T14:46:54.515Z,88.00
2017-08-08T14:49:22.071Z,88.00
2017-08-08T14:51:50.370Z,88.40
2017-08-08T14:54:17.940Z,87.70
2017-08-08T14:56:45.479Z,87.40
2017-08-08T14:59:13.813Z,88.40
2017-08-08T15:01:41.349Z,88.40
2017-08-08T15:04:08.988Z,88.40
2017-08-08T15:06:36.522Z,88.20
2017-08-08T15:09:04.849Z,88.60
2017-08-08T15:11:32.421Z,88.60
2017-08-08T15:13:59.947Z,88.70
2017-08-08T15:16:27.446Z,88.30
2017-08-08T15:18:55.082Z,88.30
2017-08-08T15:21:22.605Z,88.50
2017-08-08T15:23:50.922Z,87.80
2017-08-08T15:26:18.495Z,88.40
2017-08-08T15:28:46.038Z,88.50
2017-08-08T15:31:13.641Z,88.40
2017-08-08T15:33:41.164Z,88.10
2017-08-08T15:36:08.791Z,88.10
2017-08-08T15:38:36.343Z,87.90
2017-08-08T15:41:04.013Z,87.90
2017-08-08T15:43:31.564Z,87.10
2017-08-08T15:45:59.131Z,87.20
2017-08-08T15:48:26.655Z,87.30
2017-08-08T15:50:55.250Z,87.20
2017-08-08T15:53:22.923Z,87.10
2017-08-08T15:55:50.461Z,85.50
2017-08-08T15:58:18.173Z,85.60
2017-08-08T16:00:45.713Z,85.00
2017-08-08T16:03:13.233Z,84.00
2017-08-08T16:05:41.715Z,84.60
2017-08-08T16:08:09.995Z,84.00
2017-08-08T16:10:37.575Z,83.80
2017-08-08T16:13:05.146Z,83.80
2017-08-08T16:15:32.799Z,83.90
2017-08-08T16:18:00.319Z,83.80
2017-08-08T16:20:28.642Z,85.40
2017-08-08T16:22:56.163Z,85.10
2017-08-08T16:25:23.699Z,85.70
2017-08-08T16:27:51.264Z,85.40
2017-08-08T16:30:19.550Z,85.50
2017-08-08T16:32:47.996Z,85.70
2017-08-08T16:35:15.567Z,85.80
2017-08-08T16:37:43.251Z,85.40
2017-08-08T16:40:10.864Z,85.50
2017-08-08T16:42:38.523Z,85.50
2017-08-08T16:45:06.105Z,85.20
2017-08-08T16:47:33.630Z,85.40
2017-08-08T16:50:01.217Z,85.30
2017-08-08T16:52:28.780Z,85.30
2017-08-08T16:54:57.090Z,84.90
2017-08-08T16:57:24.626Z,85.20
2017-08-08T16:59:52.975Z,85.00
2017-08-08T17:02:20.536Z,85.00
2017-08-08T17:04:48.067Z,85.30
2017-08-08T17:07:15.633Z,85.20
2017-08-08T17:09:43.170Z,84.30
2017-08-08T17:12:10.743Z,85.10
2017-08-08T17:14:38.297Z,84.80
2017-08-08T17:17:05.887Z,84.50
2017-08-08T17:19:33.462Z,84.30
2017-08-08T17:22:01.758Z,84.20
2017-08-08T17:24:29.328Z,84.10
2017-08-08T17:26:56.863Z,83.80
2017-08-08T17:29:25.164Z,84.10
2017-08-08T17:31:52.863Z,84.00
2017-08-08T17:34:20.459Z,83.90
2017-08-08T17:36:48.804Z,84.00
2017-08-08T17:39:16.339Z,84.00
2017-08-08T17:41:43.925Z,84.10
2017-08-08T17:44:11.468Z,84.20
2017-08-08T17:46:38.994Z,83.80
2017-08-08T17:49:06.651Z,83.90
2017-08-08T17:51:34.184Z,83.80
2017-08-08T17:54:02.631Z,83.80
2017-08-08T17:56:30.158Z,83.80
2017-08-08T17:58:57.712Z,83.40
2017-08-08T18:01:25.271Z,83.50
2017-08-08T18:03:52.801Z,83.40
2017-08-08T18:06:20.548Z,83.30
2017-08-08T18:08:48.886Z,83.40
2017-08-08T18:11:16.620Z,83.30
2017-08-08T18:13:44.150Z,83.20
2017-08-08T18:16:12.455Z,83.30
2017-08-08T18:18:40.021Z,83.20
2017-08-08T18:21:07.555Z,83.50
2017-08-08T18:23:35.128Z,83.40
2017-08-08T18:26:02.671Z,83.70
2017-08-08T18:28:30.233Z,83.60
2017-08-08T18:30:57.799Z,84.00
2017-08-08T18:33:25.328Z,83.90
2017-08-08T18:35:53.675Z,83.50
2017-08-08T18:38:21.225Z,83.40
2017-08-08T18:40:48.785Z,83.30
2017-08-08T18:43:16.361Z,83.10
2017-08-08T18:45:44.758Z,82.90
2017-08-08T18:48:13.121Z,82.30
2017-08-08T18:50:40.659Z,82.20
2017-08-08T18:53:08.392Z,81.70
2017-08-08T18:55:36.064Z,81.80
2017-08-08T18:58:03.711Z,81.40
2017-08-08T19:00:31.283Z,81.50
2017-08-08T19:02:58.832Z,81.50
2017-08-08T19:05:26.689Z,81.50
2017-08-08T19:07:54.276Z,81.60
2017-08-08T19:10:22.129Z,81.70
2017-08-08T19:12:50.010Z,82.00
2017-08-08T19:15:17.843Z,82.10
2017-08-08T19:17:45.403Z,82.50
2017-08-08T19:20:12.969Z,82.70
2017-08-08T19:22:40.501Z,82.60
2017-08-08T19:25:08.382Z,82.90
2017-08-08T19:27:36.256Z,83.30
2017-08-08T19:30:03.929Z,83.70
2017-08-08T19:32:31.475Z,84.00
2017-08-08T19:34:59.331Z,84.20
2017-08-08T19:37:27.198Z,84.60
2017-08-08T19:39:54.860Z,85.00
2017-08-08T19:42:22.482Z,85.20
2017-08-08T19:44:50.972Z,85.60
2017-08-08T19:47:19.448Z,85.70
2017-08-08T19:49:48.060Z,86.00
2017-08-08T19:52:16.129Z,86.00
2017-08-08T19:54:44.097Z,86.50
2017-08-08T19:57:12.069Z,86.90
2017-08-08T19:59:40.041Z,86.80
2017-08-08T20:02:07.999Z,86.90
2017-08-08T20:04:35.865Z,86.80
2017-08-08T20:07:03.834Z,86.50
2017-08-08T20:09:31.803Z,86.70
2017-08-08T20:11:59.774Z,86.00
2017-08-08T20:14:27.633Z,85.50
2017-08-08T20:16:55.461Z,85.50
2017-08-08T20:19:23.835Z,86.50
2017-08-08T20:21:52.195Z,85.80
2017-08-08T20:24:19.888Z,85.80
2017-08-08T20:26:47.436Z,85.60
2017-08-08T20:29:15.887Z,85.30
2017-08-08T20:31:43.428Z,85.20
2017-08-08T20:34:10.956Z,85.30
2017-08-08T20:36:38.475Z,85.20
2017-08-08T20:39:06.805Z,85.50
2017-08-08T20:41:34.387Z,85.10
2017-08-08T20:44:01.937Z,85.00
2017-08-08T20:46:29.463Z,84.90
2017-08-08T20:48:57.146Z,84.80
2017-08-08T20:51:24.763Z,84.90
2017-08-08T20:53:53.131Z,84.90
2017-08-08T20:56:21.439Z,84.90
2017-08-08T20:58:48.968Z,84.80
2017-08-08T21:01:17.319Z,85.10
2017-08-08T21:03:44.848Z,85.10
2017-08-08T21:06:12.416Z,85.30
2017-08-08T21:08:40.046Z,85.40
2017-08-08T21:11:07.699Z,85.60
2017-08-08T21:13:35.268Z,85.60
2017-08-08T21:16:02.803Z,85.70
2017-08-08T21:18:30.364Z,85.60
2017-08-08T21:20:57.927Z,85.30
2017-08-08T21:23:25.483Z,85.10
2017-08-08T21:25:53.035Z,85.10
2017-08-08T21:28:20.568Z,85.10
2017-08-08T21:30:48.916Z,85.70
2017-08-08T21:33:16.439Z,85.20
2017-08-08T21:35:44.731Z,85.50
2017-08-08T21:38:12.291Z,85.60
2017-08-08T21:40:39.831Z,85.70
2017-08-08T21:43:07.394Z,85.80
2017-08-08T21:45:35.026Z,85.80
2017-08-08T21:48:03.351Z,85.90
2017-08-08T21:50:30.891Z,85.80
2017-08-08T21:52:58.415Z,85.90
2017-08-08T21:55:26.839Z,85.80
2017-08-08T21:57:54.383Z,85.70
2017-08-08T22:00:21.904Z,85.90
2017-08-08T22:02:50.260Z,86.00
2017-08-08T22:05:17.884Z,85.90
2017-08-08T22:07:45.443Z,85.90
2017-08-08T22:10:12.962Z,86.20
2017-08-08T22:12:41.286Z,86.60
2017-08-08T22:15:08.808Z,86.60
2017-08-08T22:17:36.363Z,86.70
2017-08-08T22:20:03.889Z,87.00
2017-08-08T22:22:31.428Z,87.10
2017-08-08T22:24:58.991Z,87.20
2017-08-08T22:27:26.527Z,87.30
2017-08-08T22:29:54.101Z,87.40
2017-08-08T22:32:21.681Z,87.60
2017-08-08T22:34:49.203Z,87.80
2017-08-08T22:37:16.786Z,88.10
2017-08-08T22:39:44.307Z,88.30
2017-08-08T22:42:11.878Z,88.40
2017-08-08T22:44:39.410Z,88.70
2017-08-08T22:47:06.972Z,88.80
2017-08-08T22:49:34.545Z,89.40
2017-08-08T22:52:02.175Z,89.80
2017-08-08T22:54:29.707Z,89.60
2017-08-08T22:56:57.262Z,89.60
2017-08-08T22:59:25.768Z,90.10
2017-08-08T23:01:53.439Z,89.60
2017-08-08T23:04:20.971Z,90.10
2017-08-08T23:06:49.331Z,90.00
2017-08-08T23:09:16.863Z,90.00
2017-08-08T23:11:44.679Z,90.10
2017-08-08T23:14:12.997Z,90.20
2017-08-08T23:16:40.638Z,90.20
2017-08-08T23:19:08.220Z,90.10
2017-08-08T23:21:35.765Z,90.20
2017-08-08T23:24:03.311Z,90.10
2017-08-08T23:26:30.887Z,90.10
2017-08-08T23:28:58.420Z,90.30
2017-08-08T23:31:25.955Z,90.20
2017-08-08T23:33:54.274Z,90.20
2017-08-08T23:36:21.848Z,90.20
2017-08-08T23:38:49.372Z,90.20
2017-08-08T23:41:16.906Z,90.30
2017-08-08T23:43:45.298Z,90.20
2017-08-08T23:46:12.810Z,90.20
2017-08-08T23:48:40.371Z,90.50
2017-08-08T23:51:07.930Z,90.40
2017-08-08T23:53:35.482Z,90.60
2017-08-08T23:56:03.186Z,90.50
2017-08-08T23:58:31.462Z,90.50
